Time;durP1;ratioP1;P1;durP2;ratioP2;P2;SDS_P1;SDS_P2;PMS_P1;PMS_P2;Temp;Humidity;BMP_temperature;BMP_pressure;BME280_temperature;BME280_humidity;BME280_pressure;Samples;Min_cycle;Max_cycle;Signal;HPM_P1;HPM_P2
2021/12/16 00:03:10;;;;;;;5.82;2.47;;;20.20;61.50;;;;;;5031939;28;20552;-61
2021/12/16 00:06:03;;;;;;;4.93;2.30;;;20.20;61.50;;;;;;5030462;28;20080;-61
2021/12/16 00:08:40;;;;;;;3.90;2.10;;;20.20;61.50;;;;;;5033649;28;20091;-61
2021/12/16 00:30:09;;;;;;;6.03;2.50;;;20.10;61.40;;;;;;5035641;28;20144;-61
2021/12/16 00:35:04;;;;;;;5.88;2.45;;;20.10;61.40;;;;;;5035475;28;20043;-61
2021/12/16 00:37:30;;;;;;;5.55;2.33;;;20.10;61.40;;;;;;5034741;28;20073;-61
2021/12/16 00:39:55;;;;;;;5.95;2.40;;;20.10;61.30;;;;;;5034582;28;20126;-62
2021/12/16 00:45:22;;;;;;;5.00;2.60;;;20.10;61.30;;;;;;5035157;28;20069;-61
2021/12/16 00:48:59;;;;;;;8.18;2.65;;;20.10;61.30;;;;;;5034675;28;20052;-61
2021/12/16 00:55:54;;;;;;;4.55;2.45;;;20.00;61.20;;;;;;5035229;28;20045;-62
2021/12/16 00:58:28;;;;;;;5.10;2.33;;;20.00;61.20;;;;;;5034725;28;20065;-61
2021/12/16 01:03:53;;;;;;;4.15;2.20;;;20.00;61.10;;;;;;5033674;28;20052;-61
2021/12/16 01:06:45;;;;;;;5.03;2.60;;;20.00;61.10;;;;;;5035009;28;20049;-61
2021/12/16 01:37:01;;;;;;;7.07;2.70;;;19.90;60.90;;;;;;5033230;28;20671;-62
2021/12/16 01:39:26;;;;;;;5.38;2.38;;;19.90;60.90;;;;;;5033350;28;20053;-61
2021/12/16 01:47:18;;;;;;;5.55;2.28;;;19.90;60.80;;;;;;5032808;28;20046;-61
2021/12/16 01:50:02;;;;;;;4.03;2.58;;;19.80;60.80;;;;;;5033094;28;20038;-61
2021/12/16 01:55:23;;;;;;;3.50;2.00;;;19.80;60.80;;;;;;5032702;28;20045;-61
2021/12/16 01:57:51;;;;;;;4.78;2.42;;;19.80;60.80;;;;;;5032535;28;20060;-61
2021/12/16 02:00:28;;;;;;;4.95;2.72;;;19.90;60.80;;;;;;5034252;28;20060;-61
2021/12/16 02:03:00;;;;;;;4.68;2.30;;;19.80;60.70;;;;;;5031752;28;20081;-61
2021/12/16 02:10:46;;;;;;;3.13;2.03;;;19.80;60.70;;;;;;5031613;28;20049;-61
2021/12/16 02:13:34;;;;;;;4.22;1.73;;;19.80;60.70;;;;;;5033958;28;20056;-61
2021/12/16 02:27:28;;;;;;;3.72;2.13;;;19.80;60.60;;;;;;5033048;28;20441;-61
2021/12/16 02:30:28;;;;;;;;;;;19.80;60.60;;;;;;5032315;28;20119;-61
2021/12/16 02:32:56;;;;;;;4.97;2.40;;;19.70;60.50;;;;;;5032565;28;20291;-61
2021/12/16 02:35:35;;;;;;;4.95;2.08;;;19.70;60.60;;;;;;5033373;28;20058;-61
2021/12/16 02:38:03;;;;;;;4.63;2.38;;;19.80;60.60;;;;;;5031104;28;20288;-61
2021/12/16 02:40:29;;;;;;;4.70;2.25;;;19.80;60.60;;;;;;5033059;28;20559;-62
2021/12/16 02:43:05;;;;;;;3.58;1.92;;;19.80;60.60;;;;;;5033165;28;20493;-61
2021/12/16 02:48:35;;;;;;;4.65;2.40;;;19.80;60.50;;;;;;5033491;28;20148;-61
2021/12/16 02:51:11;;;;;;;5.20;2.10;;;19.80;60.50;;;;;;5033059;28;20556;-61
2021/12/16 02:53:42;;;;;;;3.78;2.10;;;19.80;60.50;;;;;;5032383;28;20120;-61
2021/12/16 02:56:07;;;;;;;4.47;2.35;;;19.80;60.50;;;;;;5033157;28;20046;-62
2021/12/16 02:58:35;;;;;;;5.78;2.60;;;19.80;60.50;;;;;;5032782;28;20052;-62
2021/12/16 03:01:06;;;;;;;4.07;2.30;;;19.80;60.40;;;;;;5031337;28;20041;-61
2021/12/16 03:03:34;;;;;;;5.18;2.40;;;19.80;60.40;;;;;;5031850;28;20481;-62
2021/12/16 03:06:02;;;;;;;4.75;2.30;;;19.80;60.40;;;;;;5029761;28;20048;-61
2021/12/16 03:08:28;;;;;;;6.00;2.00;;;19.80;60.30;;;;;;5030998;28;20398;-61
2021/12/16 03:11:05;;;;;;;4.63;2.05;;;19.90;60.40;;;;;;5032600;28;20063;-61
2021/12/16 03:13:36;;;;;;;4.47;2.13;;;19.90;60.40;;;;;;5032024;28;20050;-61
2021/12/16 03:21:30;;;;;;;5.45;2.10;;;19.90;60.20;;;;;;5030072;28;20045;-62
2021/12/16 03:30:15;;;;;;;4.72;2.00;;;20.00;60.30;;;;;;5031928;28;20049;-62
2021/12/16 03:32:33;;;;;;;4.05;2.40;;;19.90;60.20;;;;;;5031753;28;20092;-61
2021/12/16 03:35:14;;;;;;;5.70;2.63;;;19.90;60.20;;;;;;5030579;28;20053;-61
2021/12/16 03:37:39;;;;;;;4.05;2.00;;;20.00;60.20;;;;;;5032699;28;20091;-61
2021/12/16 03:40:08;;;;;;;4.03;1.90;;;20.00;60.20;;;;;;5032016;28;20049;-62
2021/12/16 03:42:39;;;;;;;5.03;2.42;;;20.00;60.10;;;;;;5033626;28;20088;-62
2021/12/16 03:48:08;;;;;;;4.07;1.98;;;20.00;60.70;;;;;;5036741;28;20049;-62
2021/12/16 03:50:33;;;;;;;4.20;2.60;;;20.00;60.10;;;;;;5035697;28;20041;-61
2021/12/16 03:52:59;;;;;;;4.55;2.30;;;20.00;60.00;;;;;;5036444;28;20049;-61
2021/12/16 03:55:25;;;;;;;5.57;2.67;;;20.10;60.10;;;;;;5035752;28;20042;-61
2021/12/16 03:57:50;;;;;;;4.63;2.20;;;20.10;60.00;;;;;;5035856;28;20575;-62
2021/12/16 04:00:22;;;;;;;5.10;2.20;;;20.10;60.00;;;;;;5036254;28;20076;-62
2021/12/16 04:02:48;;;;;;;4.78;2.20;;;20.10;60.00;;;;;;5035501;28;20152;-61
2021/12/16 04:05:14;;;;;;;3.95;2.13;;;20.10;60.00;;;;;;5035254;28;20041;-61
2021/12/16 04:07:39;;;;;;;4.22;2.10;;;20.10;60.00;;;;;;5035033;28;20045;-61
2021/12/16 04:10:08;;;;;;;3.88;1.90;;;20.10;60.00;;;;;;5035169;28;20049;-62
2021/12/16 04:12:33;;;;;;;4.55;2.03;;;20.10;60.00;;;;;;5035784;28;20465;-62
2021/12/16 04:15:00;;;;;;;3.72;1.80;;;20.10;60.00;;;;;;5035594;28;20072;-61
2021/12/16 04:17:27;;;;;;;4.57;2.00;;;20.20;60.00;;;;;;5035270;28;20128;-61
2021/12/16 04:19:52;;;;;;;5.13;2.20;;;20.20;59.90;;;;;;5035835;28;20081;-61
2021/12/16 04:22:27;;;;;;;3.53;1.92;;;20.20;59.90;;;;;;5034818;28;20095;-61
2021/12/16 04:24:53;;;;;;;6.70;2.80;;;20.20;59.90;;;;;;5035015;28;20052;-61
2021/12/16 04:27:18;;;;;;;6.68;2.10;;;20.20;59.80;;;;;;5035720;28;20405;-61
2021/12/16 04:29:44;;;;;;;3.47;1.83;;;20.20;59.90;;;;;;5035423;28;20041;-62
2021/12/16 04:32:10;;;;;;;3.28;1.85;;;20.20;59.80;;;;;;5034936;28;20041;-61
2021/12/16 04:34:35;;;;;;;3.38;1.65;;;20.20;59.80;;;;;;5035654;28;20037;-61
2021/12/16 04:37:01;;;;;;;3.28;1.90;;;20.20;59.80;;;;;;5035252;28;20554;-61
2021/12/16 04:39:28;;;;;;;3.33;2.08;;;20.20;59.80;;;;;;5034850;28;20378;-61
2021/12/16 04:41:55;;;;;;;4.80;2.00;;;20.20;59.80;;;;;;5035363;28;20049;-61
2021/12/16 04:44:21;;;;;;;4.47;2.13;;;20.30;59.80;;;;;;5035495;28;20120;-61
2021/12/16 04:46:46;;;;;;;2.83;1.83;;;20.20;59.80;;;;;;5034393;28;20145;-61
2021/12/16 04:49:12;;;;;;;5.07;2.28;;;20.30;59.90;;;;;;5035247;28;20041;-61
2021/12/16 04:51:40;;;;;;;3.47;1.88;;;20.30;59.80;;;;;;5033592;28;20087;-61
2021/12/16 04:54:07;;;;;;;3.13;1.73;;;20.30;59.80;;;;;;5034266;28;20069;-61
2021/12/16 04:56:33;;;;;;;5.15;2.20;;;20.30;59.80;;;;;;5035288;28;20072;-61
2021/12/16 04:58:59;;;;;;;2.75;1.70;;;20.30;59.80;;;;;;5034272;28;20103;-61
2021/12/16 05:01:24;;;;;;;3.70;2.00;;;20.30;59.80;;;;;;5034516;28;20050;-61
2021/12/16 05:03:51;;;;;;;4.53;1.95;;;20.30;59.80;;;;;;5034637;28;20124;-61
2021/12/16 05:06:17;;;;;;;3.55;2.00;;;20.40;60.50;;;;;;5032207;28;20049;-61
2021/12/16 05:08:42;;;;;;;3.45;2.15;;;20.40;59.80;;;;;;5034471;28;20056;-61
2021/12/16 05:11:12;;;;;;;4.28;2.10;;;20.30;59.80;;;;;;5035110;28;20038;-61
2021/12/16 05:13:38;;;;;;;3.92;1.95;;;20.30;59.80;;;;;;5034211;28;20049;-61
2021/12/16 05:16:05;;;;;;;4.55;2.10;;;20.30;59.80;;;;;;5034837;28;20053;-61
2021/12/16 05:18:34;;;;;;;3.20;1.95;;;20.30;59.80;;;;;;5034781;28;20049;-61
2021/12/16 05:21:01;;;;;;;3.45;1.85;;;20.40;59.80;;;;;;5032604;28;20091;-61
2021/12/16 05:28:37;;;;;;;4.80;2.70;;;20.40;59.80;;;;;;5034205;28;20061;-61
2021/12/16 05:31:02;;;;;;;5.30;2.03;;;20.40;59.80;;;;;;5034522;28;20049;-61
2021/12/16 05:33:28;;;;;;;4.63;2.00;;;20.40;59.80;;;;;;5034869;28;20080;-61
2021/12/16 05:35:54;;;;;;;3.47;2.13;;;20.40;59.80;;;;;;5033736;28;20397;-61
2021/12/16 05:38:19;;;;;;;3.40;2.28;;;20.50;60.50;;;;;;5034564;28;20045;-61
2021/12/16 05:40:45;;;;;;;2.80;1.92;;;20.40;59.80;;;;;;5034228;28;20132;-61
2021/12/16 05:43:14;;;;;;;4.20;2.05;;;20.40;59.80;;;;;;5033605;28;20132;-61
2021/12/16 05:45:40;;;;;;;2.83;1.98;;;20.40;60.40;;;;;;5034556;28;20045;-61
2021/12/16 05:48:07;;;;;;;4.00;1.95;;;20.40;59.70;;;;;;5032451;28;20129;-61
2021/12/16 05:50:34;;;;;;;3.30;1.65;;;20.40;59.70;;;;;;5034152;28;20401;-61
2021/12/16 05:52:59;;;;;;;2.90;1.80;;;20.50;59.80;;;;;;5034042;28;20049;-61
2021/12/16 05:55:25;;;;;;;5.10;2.03;;;20.40;59.70;;;;;;5033085;28;20053;-61
2021/12/16 05:57:51;;;;;;;3.58;1.80;;;20.40;59.70;;;;;;5033424;28;20053;-61
2021/12/16 06:00:20;;;;;;;4.28;2.00;;;20.40;59.70;;;;;;5033884;28;20045;-61
2021/12/16 06:02:45;;;;;;;4.03;2.10;;;20.40;59.70;;;;;;5033163;28;20103;-61
2021/12/16 06:05:11;;;;;;;3.20;1.88;;;20.40;59.70;;;;;;5033901;28;20045;-62
2021/12/16 06:07:37;;;;;;;4.00;2.03;;;20.40;59.70;;;;;;5034116;28;20033;-62
2021/12/16 06:10:03;;;;;;;3.95;2.10;;;20.50;59.70;;;;;;5032747;28;20566;-62
2021/12/16 06:12:29;;;;;;;4.22;2.20;;;20.50;59.70;;;;;;5034077;28;20041;-61
2021/12/16 06:15:17;;;;;;;4.90;2.00;;;20.50;59.80;;;;;;5032220;28;20180;-61
2021/12/16 06:28:21;;;;;;;3.30;2.05;;;20.50;59.60;;;;;;5033713;28;20140;-61
2021/12/16 06:30:47;;;;;;;3.55;2.00;;;20.50;59.70;;;;;;5032540;28;20120;-61
2021/12/16 06:33:14;;;;;;;3.78;1.90;;;20.50;59.60;;;;;;5033416;28;20052;-61
2021/12/16 06:35:40;;;;;;;4.53;2.05;;;20.50;59.60;;;;;;5033551;28;20045;-61
2021/12/16 06:38:06;;;;;;;3.78;1.73;;;20.50;59.70;;;;;;5032762;28;20044;-61
2021/12/16 06:40:31;;;;;;;4.60;1.80;;;20.50;59.60;;;;;;5033145;28;20045;-61
2021/12/16 06:42:59;;;;;;;4.75;2.17;;;20.50;59.60;;;;;;5033202;28;20041;-62
2021/12/16 06:45:29;;;;;;;3.78;2.03;;;20.50;59.60;;;;;;5032594;28;20124;-61
2021/12/16 06:48:00;;;;;;;3.55;2.00;;;20.50;59.60;;;;;;5032929;28;20045;-61
2021/12/16 06:50:40;;;;;;;3.25;1.80;;;20.50;59.60;;;;;;5033097;28;20049;-61
2021/12/16 06:53:07;;;;;;;2.78;1.75;;;20.50;59.60;;;;;;5032804;28;20057;-61
2021/12/16 06:58:28;;;;;;;2.90;1.98;;;20.60;59.50;;;;;;5031985;28;20386;-61
2021/12/16 07:01:05;;;;;;;3.58;2.08;;;20.60;59.60;;;;;;5032957;28;20053;-61
2021/12/16 07:03:44;;;;;;;5.20;2.15;;;20.60;59.60;;;;;;5033362;28;20103;-62
2021/12/16 07:06:09;;;;;;;3.95;2.10;;;20.60;59.60;;;;;;5032488;28;20053;-61
2021/12/16 07:08:35;;;;;;;3.15;1.92;;;20.60;59.60;;;;;;5033144;28;20056;-61
2021/12/16 07:11:01;;;;;;;4.05;2.10;;;20.60;59.50;;;;;;5032411;28;20049;-61
2021/12/16 07:13:55;;;;;;;3.75;1.80;;;20.60;59.50;;;;;;5032258;28;20041;-61
2021/12/16 07:16:14;;;;;;;3.35;1.80;;;20.60;59.50;;;;;;5032043;28;20056;-61
2021/12/16 07:18:40;;;;;;;3.15;1.90;;;20.60;59.50;;;;;;5031392;28;20049;-61
2021/12/16 07:21:06;;;;;;;3.65;2.13;;;20.60;59.50;;;;;;5031036;28;20397;-61
2021/12/16 07:23:31;;;;;;;3.47;2.00;;;20.60;59.50;;;;;;5032828;28;20069;-61
2021/12/16 07:25:58;;;;;;;2.58;1.52;;;20.60;59.50;;;;;;5032526;28;20065;-61
2021/12/16 07:28:24;;;;;;;4.20;1.98;;;20.60;59.50;;;;;;5032258;28;20050;-62
2021/12/16 07:30:50;;;;;;;3.40;1.83;;;20.60;59.40;;;;;;5032504;28;20073;-61
2021/12/16 07:33:17;;;;;;;3.97;2.08;;;20.70;59.50;;;;;;5032686;28;20084;-61
2021/12/16 07:35:42;;;;;;;3.60;2.03;;;20.70;59.50;;;;;;5030197;28;20132;-61
2021/12/16 07:38:08;;;;;;;2.65;1.83;;;20.70;59.50;;;;;;5032454;28;20064;-62
2021/12/16 07:40:34;;;;;;;3.13;1.83;;;20.70;59.40;;;;;;5031680;28;20135;-62
2021/12/16 07:43:11;;;;;;;3.55;1.88;;;20.70;59.40;;;;;;5031234;28;20095;-61
2021/12/16 07:45:44;;;;;;;3.35;1.60;;;20.70;59.40;;;;;;5032756;28;20041;-61
2021/12/16 07:48:11;;;;;;;2.95;1.80;;;20.70;59.50;;;;;;5031710;28;20049;-62
2021/12/16 07:50:38;;;;;;;3.67;2.10;;;20.70;59.40;;;;;;5031132;28;20052;-61
2021/12/16 07:53:05;;;;;;;4.18;1.88;;;20.70;59.30;;;;;;5032349;28;20051;-61
2021/12/16 07:55:31;;;;;;;3.25;1.90;;;20.70;59.30;;;;;;5031821;28;20137;-61
2021/12/16 07:57:56;;;;;;;2.83;1.60;;;20.70;59.40;;;;;;5031895;28;20477;-61
2021/12/16 08:00:25;;;;;;;3.47;1.88;;;20.70;59.40;;;;;;5032371;28;20041;-62
2021/12/16 08:02:50;;;;;;;;;;;20.80;59.40;;;;;;5031641;28;20073;-61
2021/12/16 08:05:17;;;;;;;4.00;1.92;;;20.70;59.40;;;;;;5032206;28;19964;-61
2021/12/16 08:07:42;;;;;;;3.85;1.90;;;20.80;59.40;;;;;;5032321;28;20045;-61
2021/12/16 08:10:11;;;;;;;3.50;2.10;;;20.80;59.50;;;;;;5031743;28;20056;-61
2021/12/16 08:12:36;;;;;;;4.95;1.90;;;20.80;59.40;;;;;;5032175;28;20564;-61
2021/12/16 08:15:02;;;;;;;5.35;2.03;;;20.80;59.40;;;;;;5032181;28;20129;-61
2021/12/16 08:17:28;;;;;;;3.95;1.90;;;20.80;59.40;;;;;;5031768;28;20489;-61
2021/12/16 08:19:53;;;;;;;5.13;2.08;;;20.80;59.40;;;;;;5031765;28;20059;-61
2021/12/16 08:22:19;;;;;;;4.10;2.30;;;20.80;59.50;;;;;;5032473;28;20421;-61
2021/12/16 08:24:44;;;;;;;4.68;2.00;;;20.80;59.50;;;;;;5031248;28;20041;-61
2021/12/16 08:27:10;;;;;;;4.28;2.00;;;20.80;59.60;;;;;;5030897;28;20041;-62
2021/12/16 08:29:35;;;;;;;3.25;1.92;;;20.80;59.60;;;;;;5035069;28;20050;-61
2021/12/16 08:32:02;;;;;;;5.20;2.15;;;20.90;59.90;;;;;;5038034;28;20042;-60
2021/12/16 08:34:30;;;;;;;4.00;2.00;;;20.90;60.00;;;;;;5045620;28;20556;-61
2021/12/16 08:36:56;;;;;;;4.38;2.05;;;20.90;60.20;;;;;;5053578;28;20060;-61
2021/12/16 08:39:23;;;;;;;4.30;2.40;;;20.90;60.40;;;;;;5055246;28;20052;-61
2021/12/16 08:41:49;;;;;;;4.75;2.20;;;20.90;60.40;;;;;;5055417;28;20079;-61
2021/12/16 08:44:16;;;;;;;3.97;2.30;;;21.00;60.60;;;;;;5054749;28;20052;-61
2021/12/16 08:46:44;;;;;;;4.78;1.90;;;20.90;60.50;;;;;;5055251;28;20052;-61
2021/12/16 08:49:09;;;;;;;5.50;2.40;;;21.00;60.70;;;;;;5054236;28;20041;-61
2021/12/16 08:51:40;;;;;;;4.13;2.17;;;21.00;60.80;;;;;;5054592;28;20055;-62
2021/12/16 08:54:05;;;;;;;4.63;2.10;;;21.00;60.80;;;;;;5054915;28;20052;-62
2021/12/16 08:56:31;;;;;;;4.90;2.03;;;21.00;60.90;;;;;;5055151;28;20052;-62
2021/12/16 08:58:57;;;;;;;5.03;2.03;;;21.00;60.90;;;;;;5054338;28;20132;-61
2021/12/16 09:01:25;;;;;;;4.97;2.20;;;21.00;61.00;;;;;;5055299;28;20045;-61
2021/12/16 09:03:51;;;;;;;5.40;2.25;;;21.10;61.10;;;;;;5054933;28;20091;-60
2021/12/16 09:06:16;;;;;;;5.88;2.30;;;21.00;61.00;;;;;;5054476;28;20041;-61
2021/12/16 09:08:42;;;;;;;3.70;2.15;;;21.10;61.10;;;;;;5054574;28;20048;-61
2021/12/16 09:11:09;;;;;;;5.43;2.45;;;21.10;61.10;;;;;;5055040;28;20041;-61
2021/12/16 09:13:39;;;;;;;4.28;2.17;;;21.10;61.10;;;;;;5053066;28;20049;-61
2021/12/16 09:16:08;;;;;;;3.40;2.05;;;21.10;61.10;;;;;;5054456;28;20386;-59
2021/12/16 09:18:34;;;;;;;3.85;2.08;;;21.10;61.20;;;;;;5054746;28;20412;-59
2021/12/16 09:21:00;;;;;;;4.32;2.50;;;21.10;61.20;;;;;;5053695;28;20087;-60
2021/12/16 09:23:26;;;;;;;4.65;2.50;;;21.20;61.30;;;;;;5054783;28;20080;-59
2021/12/16 09:25:52;;;;;;;6.30;2.53;;;21.20;61.30;;;;;;5053810;28;20068;-59
2021/12/16 09:28:19;;;;;;;4.30;2.47;;;21.20;61.30;;;;;;5054486;28;20064;-59
2021/12/16 09:30:45;;;;;;;6.03;2.40;;;21.20;61.30;;;;;;5054223;28;20045;-59
2021/12/16 09:33:14;;;;;;;5.00;2.63;;;21.20;61.30;;;;;;5053678;28;20481;-58
2021/12/16 09:35:40;;;;;;;4.35;2.70;;;21.20;61.30;;;;;;5054437;28;20481;-59
2021/12/16 09:38:07;;;;;;;3.63;2.55;;;21.20;61.40;;;;;;5054595;28;20059;-59
2021/12/16 09:40:44;;;;;;;4.55;2.25;;;21.20;61.30;;;;;;5052858;28;20048;-59
2021/12/16 09:43:09;;;;;;;4.38;2.33;;;21.30;61.50;;;;;;5054490;28;20056;-59
2021/12/16 09:45:35;;;;;;;4.88;2.40;;;21.20;61.40;;;;;;5054392;28;20041;-59
2021/12/16 09:48:00;;;;;;;4.75;2.15;;;21.20;61.40;;;;;;5053375;28;20052;-59
2021/12/16 09:50:27;;;;;;;6.15;2.50;;;21.30;61.40;;;;;;5053942;28;20049;-60
2021/12/16 09:52:53;;;;;;;5.85;2.28;;;21.30;61.50;;;;;;5054114;28;20052;-60
2021/12/16 09:55:19;;;;;;;4.38;2.15;;;21.30;61.40;;;;;;5053470;28;20040;-60
2021/12/16 09:57:45;;;;;;;4.13;2.05;;;21.30;61.30;;;;;;5053389;28;20064;-60
2021/12/16 10:00:11;;;;;;;3.42;2.00;;;21.30;61.30;;;;;;5053979;28;20115;-59
2021/12/16 10:02:38;;;;;;;4.15;2.47;;;21.30;61.40;;;;;;5053428;28;20048;-60
2021/12/16 10:05:04;;;;;;;4.03;2.17;;;21.30;61.30;;;;;;5053719;28;20059;-61
2021/12/16 10:07:33;;;;;;;4.18;2.08;;;21.30;61.30;;;;;;5053899;28;20045;-60
2021/12/16 10:09:59;;;;;;;7.50;2.65;;;21.30;61.10;;;;;;5033062;28;20099;-58
2021/12/16 10:12:30;;;;;;;6.57;3.22;;;21.30;61.00;;;;;;5033596;28;20111;-58
2021/12/16 10:17:28;;;;;;;9.73;4.40;;;21.30;60.80;;;;;;5032802;28;20077;-60
2021/12/16 10:19:54;;;;;;;17.42;7.07;;;21.30;60.50;;;;;;5032070;28;20098;-58
2021/12/16 10:22:33;;;;;;;19.58;8.82;;;21.30;60.30;;;;;;5032804;28;20049;-59
2021/12/16 10:25:30;;;;;;;25.13;8.23;;;21.30;60.10;;;;;;5033441;28;20080;-60
2021/12/16 10:28:01;;;;;;;26.55;9.50;;;21.30;59.90;;;;;;5033523;28;20036;-59
2021/12/16 10:30:46;;;;;;;21.35;7.60;;;21.20;60.00;;;;;;5031732;28;20050;-59
2021/12/16 10:33:23;;;;;;;25.75;8.60;;;21.20;60.00;;;;;;5033529;28;20053;-60
2021/12/16 10:35:49;;;;;;;21.02;8.23;;;21.30;60.00;;;;;;5032665;28;20052;-60
2021/12/16 10:38:17;;;;;;;24.23;7.38;;;21.20;60.00;;;;;;5032212;28;20409;-60
2021/12/16 10:40:44;;;;;;;23.67;8.32;;;21.30;60.00;;;;;;5033057;28;20041;-59
2021/12/16 10:43:24;;;;;;;20.52;7.80;;;21.20;60.00;;;;;;5033147;28;20398;-59
2021/12/16 10:45:57;;;;;;;23.83;7.43;;;21.20;59.90;;;;;;5032969;28;20168;-59
2021/12/16 10:48:25;;;;;;;21.15;7.90;;;21.20;59.70;;;;;;5015389;28;20049;-59
2021/12/16 10:50:59;;;;;;;20.35;7.93;;;21.20;59.70;;;;;;5031709;28;20103;-59
2021/12/16 10:53:45;;;;;;;22.77;7.38;;;21.20;59.70;;;;;;5032445;28;20072;-59
2021/12/16 10:56:10;;;;;;;20.75;7.63;;;21.20;59.60;;;;;;5032828;28;20059;-60
2021/12/16 10:58:52;;;;;;;21.67;7.82;;;21.20;59.70;;;;;;5030923;28;20132;-59
2021/12/16 11:01:46;;;;;;;19.67;7.68;;;21.20;59.60;;;;;;5033029;28;20045;-59
2021/12/16 11:04:23;;;;;;;19.27;7.70;;;21.20;59.50;;;;;;5033138;28;20064;-59
2021/12/16 11:06:58;;;;;;;18.07;7.07;;;21.20;59.50;;;;;;5032886;28;20045;-59
2021/12/16 11:09:47;;;;;;;16.75;7.15;;;21.20;59.30;;;;;;5033091;28;20046;-59
2021/12/16 11:12:17;;;;;;;18.35;7.47;;;21.20;59.70;;;;;;5032115;28;20046;-59
2021/12/16 11:14:49;;;;;;;17.15;6.70;;;21.20;59.40;;;;;;5032360;28;20490;-59
2021/12/16 11:17:16;;;;;;;15.98;6.97;;;21.20;59.30;;;;;;5032835;28;20049;-59
2021/12/16 11:19:49;;;;;;;15.48;6.63;;;21.20;59.30;;;;;;5031689;28;20053;-59
2021/12/16 11:22:18;;;;;;;13.93;6.43;;;21.20;59.20;;;;;;5032982;28;20041;-59
2021/12/16 11:24:43;;;;;;;18.27;6.15;;;21.20;59.10;;;;;;5031151;28;20512;-59
2021/12/16 11:27:19;;;;;;;14.90;6.50;;;21.20;59.10;;;;;;5031892;28;20042;-59
2021/12/16 11:29:45;;;;;;;14.43;6.25;;;21.20;58.90;;;;;;5032119;28;20060;-59
2021/12/16 11:32:34;;;;;;;16.50;5.95;;;21.20;59.00;;;;;;5032453;28;20046;-59
2021/12/16 11:34:59;;;;;;;13.82;5.53;;;21.20;58.80;;;;;;5014596;28;20052;-60
2021/12/16 11:37:25;;;;;;;13.05;6.30;;;21.20;58.80;;;;;;5030275;28;20054;-59
2021/12/16 11:39:50;;;;;;;13.77;6.18;;;21.20;58.80;;;;;;5031074;28;20041;-59
2021/12/16 11:42:16;;;;;;;12.80;5.57;;;21.20;58.60;;;;;;5031329;28;20049;-59
2021/12/16 11:44:42;;;;;;;12.85;5.95;;;21.20;58.50;;;;;;5031100;28;20482;-59
2021/12/16 11:47:20;;;;;;;13.02;6.22;;;21.20;58.30;;;;;;5031752;28;20470;-59
2021/12/16 11:49:50;;;;;;;12.82;5.75;;;21.20;58.10;;;;;;5032465;28;20556;-59
2021/12/16 11:52:16;;;;;;;13.07;4.97;;;21.20;58.80;;;;;;5032684;28;20189;-59
2021/12/16 11:54:46;;;;;;;11.40;5.45;;;21.20;58.10;;;;;;5031407;28;20041;-60
2021/12/16 11:57:13;;;;;;;11.45;5.65;;;21.20;58.10;;;;;;5039153;28;20072;-59
2021/12/16 11:59:40;;;;;;;10.65;5.10;;;21.20;58.00;;;;;;5041790;28;20036;-59
2021/12/16 12:02:06;;;;;;;9.63;4.65;;;21.20;58.00;;;;;;5041070;28;21461;-59
2021/12/16 12:04:34;;;;;;;11.52;4.47;;;21.20;58.00;;;;;;5041565;28;20087;-59
2021/12/16 12:07:00;;;;;;;11.05;5.07;;;21.20;58.10;;;;;;5045363;28;20068;-59
2021/12/16 12:09:33;;;;;;;9.10;4.63;;;21.20;58.20;;;;;;5045474;28;20068;-59
2021/12/16 12:11:59;;;;;;;8.30;4.65;;;21.20;58.30;;;;;;5046263;28;20083;-59
2021/12/16 12:14:32;;;;;;;9.32;4.53;;;21.20;58.30;;;;;;5045308;28;20064;-60
2021/12/16 12:17:05;;;;;;;9.35;4.30;;;21.20;58.40;;;;;;5043334;28;20092;-59
2021/12/16 12:19:31;;;;;;;9.13;4.35;;;21.20;58.40;;;;;;5044980;28;20048;-59
2021/12/16 12:22:00;;;;;;;12.00;4.70;;;21.20;58.40;;;;;;5045373;28;20124;-59
2021/12/16 12:24:27;;;;;;;9.30;4.10;;;21.20;58.50;;;;;;5045207;28;20046;-59
2021/12/16 12:26:56;;;;;;;9.52;4.13;;;21.20;58.50;;;;;;5042045;28;20045;-59
2021/12/16 12:29:29;;;;;;;9.07;4.60;;;21.20;58.60;;;;;;5035106;28;20110;-60
2021/12/16 12:32:04;;;;;;;6.93;3.70;;;21.20;58.70;;;;;;5035575;28;20045;-60
2021/12/16 12:34:30;;;;;;;9.50;4.28;;;21.20;58.70;;;;;;5035850;28;20050;-60
2021/12/16 12:36:58;;;;;;;6.90;4.20;;;21.30;59.00;;;;;;5034791;28;20045;-61
2021/12/16 12:39:30;;;;;;;10.35;4.13;;;21.30;59.10;;;;;;5035718;28;20136;-60
2021/12/16 12:41:55;;;;;;;10.25;4.22;;;21.30;59.10;;;;;;5035151;28;20037;-61
2021/12/16 12:44:21;;;;;;;11.77;4.68;;;21.30;59.00;;;;;;5033629;28;20099;-60
2021/12/16 12:46:47;;;;;;;7.85;4.70;;;21.30;58.90;;;;;;5035207;28;20078;-60
2021/12/16 12:49:15;;;;;;;9.60;4.07;;;21.30;58.80;;;;;;5034395;28;20183;-60
2021/12/16 12:51:46;;;;;;;6.72;3.92;;;21.30;58.80;;;;;;5034601;28;20049;-60
2021/12/16 12:54:18;;;;;;;9.10;4.20;;;21.30;58.80;;;;;;5035615;28;20045;-60
2021/12/16 12:56:44;;;;;;;7.07;3.50;;;21.30;58.80;;;;;;5034903;28;20057;-60
2021/12/16 12:59:15;;;;;;;9.23;3.90;;;21.30;58.90;;;;;;5034725;28;20080;-60
2021/12/16 13:01:55;;;;;;;6.60;3.70;;;21.30;59.00;;;;;;5035185;28;20046;-60
2021/12/16 13:04:26;;;;;;;7.90;4.07;;;21.30;59.00;;;;;;5034631;28;20052;-60
2021/12/16 13:07:11;;;;;;;7.10;3.80;;;21.30;59.00;;;;;;5033892;28;20037;-60
2021/12/16 13:09:50;;;;;;;9.07;4.13;;;21.30;59.00;;;;;;5035213;28;20139;-60
2021/12/16 13:12:39;;;;;;;6.70;3.47;;;21.30;59.00;;;;;;5034359;28;20050;-60
2021/12/16 13:15:23;;;;;;;8.75;4.00;;;21.30;59.00;;;;;;5033443;28;20115;-60
2021/12/16 13:23:32;;;;;;;5.97;3.60;;;21.30;59.00;;;;;;5034735;28;20049;-60
2021/12/16 13:26:30;;;;;;;8.55;3.58;;;21.30;59.10;;;;;;5033719;28;20060;-60
2021/12/16 13:29:11;;;;;;;7.80;3.42;;;21.30;59.10;;;;;;5033132;28;20140;-60
2021/12/16 13:31:51;;;;;;;7.75;3.70;;;21.20;59.10;;;;;;5034729;28;20091;-60
2021/12/16 13:37:37;;;;;;;6.35;3.30;;;21.20;59.00;;;;;;5033503;28;20402;-60
2021/12/16 13:40:05;;;;;;;6.40;3.47;;;21.20;59.10;;;;;;5033475;28;20041;-60
2021/12/16 13:42:44;;;;;;;6.47;3.10;;;21.20;59.10;;;;;;5034522;28;20038;-60
2021/12/16 13:45:12;;;;;;;5.60;3.40;;;21.20;59.10;;;;;;5034474;28;20038;-60
2021/12/16 14:01:51;;;;;;;6.70;3.35;;;21.20;59.00;;;;;;5033557;28;20061;-60
2021/12/16 14:07:40;;;;;;;5.63;3.17;;;21.20;59.10;;;;;;5034290;28;20041;-60
2021/12/16 14:10:15;;;;;;;5.35;3.00;;;21.20;59.10;;;;;;5033306;28;20095;-60
2021/12/16 14:15:55;;;;;;;5.22;3.17;;;21.20;59.00;;;;;;5032796;28;20049;-60
2021/12/16 14:22:58;;;;;;;6.63;3.38;;;21.20;59.00;;;;;;5033858;28;20107;-60
2021/12/16 14:24:18;;;;;;;5.78;3.60;;;21.20;59.10;;;;;;5033694;28;20077;-60
2021/12/16 14:27:05;;;;;;;6.13;3.25;;;21.20;59.00;;;;;;5033101;28;20103;-60
2021/12/16 14:35:25;;;;;;;5.72;3.33;;;21.20;59.10;;;;;;5033329;28;20053;-60
2021/12/16 14:38:03;;;;;;;5.95;3.05;;;21.20;59.10;;;;;;5032065;28;20103;-60
2021/12/16 14:40:50;;;;;;;5.20;3.10;;;21.20;59.10;;;;;;5033559;28;20107;-60
2021/12/16 14:43:24;;;;;;;6.28;3.22;;;21.10;59.10;;;;;;5031228;28;20088;-60
2021/12/16 14:46:02;;;;;;;3.97;2.45;;;21.10;59.10;;;;;;5032177;28;20072;-60
2021/12/16 14:48:32;;;;;;;6.80;2.85;;;21.10;59.00;;;;;;5033529;28;20099;-60
2021/12/16 14:51:03;;;;;;;5.57;2.60;;;21.10;59.10;;;;;;5032404;28;20052;-60
2021/12/16 14:53:43;;;;;;;4.30;2.78;;;21.10;59.10;;;;;;5033400;28;20042;-60
2021/12/16 14:56:27;;;;;;;5.10;3.17;;;21.10;59.00;;;;;;5033092;28;20524;-60
2021/12/16 14:58:58;;;;;;;5.03;2.92;;;21.10;59.00;;;;;;5032392;28;20486;-60
2021/12/16 15:01:38;;;;;;;6.50;2.78;;;21.10;59.00;;;;;;5033338;28;20067;-60
2021/12/16 15:04:03;;;;;;;5.88;2.92;;;21.10;59.00;;;;;;5030684;28;20056;-60
2021/12/16 15:06:36;;;;;;;6.40;3.10;;;21.10;59.10;;;;;;5032515;28;20131;-60
2021/12/16 15:09:13;;;;;;;6.18;2.78;;;21.10;59.10;;;;;;5032926;28;20037;-60
2021/12/16 15:11:53;;;;;;;6.00;2.90;;;21.10;59.10;;;;;;5031854;28;20052;-60
2021/12/16 15:14:34;;;;;;;7.05;3.50;;;21.10;59.10;;;;;;5032495;28;20136;-60
2021/12/16 15:17:14;;;;;;;4.85;3.00;;;21.10;59.20;;;;;;5032120;28;20133;-60
2021/12/16 15:36:47;;;;;;;4.35;2.75;;;21.00;59.10;;;;;;5032493;28;20057;-60
2021/12/16 15:39:38;;;;;;;5.68;3.03;;;21.00;59.20;;;;;;5034777;28;20049;-60
2021/12/16 15:44:52;;;;;;;5.60;3.00;;;21.00;59.20;;;;;;5036584;28;20084;-60
2021/12/16 15:47:18;;;;;;;6.13;2.65;;;21.00;59.20;;;;;;5034958;28;20073;-60
2021/12/16 15:49:43;;;;;;;4.10;2.72;;;20.90;59.10;;;;;;5036058;28;20539;-60
2021/12/16 15:52:09;;;;;;;4.57;2.65;;;21.00;59.10;;;;;;5035512;28;20474;-60
2021/12/16 15:54:36;;;;;;;4.60;2.53;;;20.90;59.10;;;;;;5035849;28;20129;-60
2021/12/16 15:57:02;;;;;;;3.75;2.45;;;20.90;59.10;;;;;;5036117;28;20057;-60
2021/12/16 15:59:29;;;;;;;4.38;2.53;;;20.90;59.10;;;;;;5036466;28;20042;-60
2021/12/16 16:01:54;;;;;;;4.03;2.30;;;20.90;59.00;;;;;;5035595;28;20084;-60
2021/12/16 16:04:32;;;;;;;3.63;2.15;;;20.90;59.00;;;;;;5035970;28;20029;-60